Time;durP1;ratioP1;P1;durP2;ratioP2;P2;SDS_P1;SDS_P2;PMS_P1;PMS_P2;Temp;Humidity;BMP_temperature;BMP_pressure;BME280_temperature;BME280_humidity;BME280_pressure;Samples;Min_cycle;Max_cycle;Signal;HPM_P1;HPM_P2
2023/10/04 00:01:59;;;;;;;2.83;2.62;;;16.70;52.90;;;;;;20455;6857;329940;-76
2023/10/04 00:04:25;;;;;;;2.60;2.40;;;16.90;52.70;;;;;;20451;6857;309149;-76
2023/10/04 00:06:51;;;;;;;2.30;2.10;;;17.20;52.10;;;;;;20653;6857;118667;-76
2023/10/04 00:09:18;;;;;;;2.30;2.10;;;17.00;52.20;;;;;;20670;6857;117938;-75
2023/10/04 00:11:44;;;;;;;2.80;2.60;;;16.90;52.60;;;;;;20453;6857;285905;-75
2023/10/04 00:14:10;;;;;;;2.60;1.97;;;16.80;52.50;;;;;;20663;6857;120843;-76
2023/10/04 00:16:35;;;;;;;2.72;2.33;;;16.80;52.70;;;;;;20454;6857;308623;-76
2023/10/04 00:19:01;;;;;;;2.67;2.10;;;16.90;52.50;;;;;;20648;6857;120829;-76
2023/10/04 00:21:26;;;;;;;2.30;2.12;;;16.80;52.50;;;;;;20662;6857;117789;-76
2023/10/04 00:23:52;;;;;;;3.83;2.50;;;16.60;53.10;;;;;;20453;6857;307139;-77
2023/10/04 00:26:18;;;;;;;4.50;2.53;;;16.70;52.90;;;;;;20706;6857;120041;-76
2023/10/04 00:28:43;;;;;;;2.60;2.40;;;16.70;52.90;;;;;;20453;6857;279438;-76
2023/10/04 00:31:10;;;;;;;3.05;2.35;;;16.70;52.70;;;;;;20656;6857;118264;-75
2023/10/04 00:33:38;;;;;;;4.70;2.00;;;16.50;53.80;;;;;;20664;6857;117985;-74
2023/10/04 00:36:02;;;;;;;2.50;2.30;;;16.50;53.20;;;;;;20446;6857;308406;-76
2023/10/04 00:38:27;;;;;;;2.60;2.13;;;16.60;52.70;;;;;;20665;6857;117573;-76
2023/10/04 00:40:52;;;;;;;2.50;2.30;;;16.60;53.40;;;;;;20418;6857;278979;-75
2023/10/04 00:43:19;;;;;;;2.40;2.20;;;16.70;52.60;;;;;;20664;6857;117812;-76
2023/10/04 00:45:44;;;;;;;2.00;1.90;;;16.70;52.60;;;;;;20658;6857;117477;-76
2023/10/04 00:48:23;;;;;;;2.40;2.13;;;16.20;53.70;;;;;;20658;6857;118561;-76
2023/10/04 00:50:43;;;;;;;2.63;2.20;;;16.20;53.10;;;;;;20436;6855;312632;-77
2023/10/04 00:53:09;;;;;;;2.20;2.00;;;16.50;53.10;;;;;;20533;6856;119022;-76
2023/10/04 00:55:35;;;;;;;2.62;2.42;;;16.60;52.90;;;;;;20441;6856;342367;-76
2023/10/04 00:58:05;;;;;;;3.10;1.97;;;16.60;52.90;;;;;;20655;6857;117951;-76
2023/10/04 01:00:29;;;;;;;5.10;4.70;;;16.60;52.90;;;;;;20660;6857;124485;-76
2023/10/04 01:02:55;;;;;;;3.87;3.45;;;16.40;53.10;;;;;;20646;6857;117697;-76
2023/10/04 01:05:27;;;;;;;3.42;2.12;;;16.20;53.40;;;;;;20667;6857;118914;-76
2023/10/04 01:07:49;;;;;;;2.30;1.87;;;16.10;53.80;;;;;;20654;6857;118017;-76
2023/10/04 01:10:23;;;;;;;2.60;2.10;;;16.00;54.10;;;;;;20665;6857;117998;-76
2023/10/04 01:12:46;;;;;;;2.40;2.20;;;15.90;54.20;;;;;;20414;6857;281595;-76
2023/10/04 01:17:48;;;;;;;2.65;2.45;;;16.90;51.40;;;;;;20037;6857;313801;-76
2023/10/04 01:20:12;;;;;;;2.33;2.13;;;16.90;51.40;;;;;;20658;6857;117924;-76
2023/10/04 01:22:38;;;;;;;2.85;2.10;;;16.50;52.10;;;;;;20660;6857;118091;-75
2023/10/04 01:25:04;;;;;;;2.10;1.80;;;16.50;52.10;;;;;;20645;6857;120588;-76
2023/10/04 01:27:30;;;;;;;2.60;2.40;;;16.30;52.70;;;;;;20445;6857;327101;-76
2023/10/04 01:29:55;;;;;;;3.30;2.37;;;16.40;52.50;;;;;;20450;6857;308235;-76
2023/10/04 01:32:23;;;;;;;1.90;1.80;;;16.60;52.50;;;;;;20669;6857;117850;-76
2023/10/04 01:34:47;;;;;;;2.20;2.10;;;16.60;52.00;;;;;;20425;6857;348864;-76
2023/10/04 01:37:13;;;;;;;3.03;2.22;;;16.70;52.00;;;;;;20664;6857;117778;-76
2023/10/04 01:39:39;;;;;;;2.37;1.77;;;16.50;52.00;;;;;;20668;6857;117466;-76
2023/10/04 01:42:04;;;;;;;2.30;2.10;;;16.20;52.30;;;;;;20447;6857;309137;-76
2023/10/04 01:44:29;;;;;;;2.50;2.30;;;16.30;51.90;;;;;;20451;6857;281297;-76
2023/10/04 01:46:56;;;;;;;2.50;2.30;;;16.50;51.30;;;;;;20434;6857;340273;-76
2023/10/04 01:49:20;;;;;;;2.60;2.40;;;16.70;51.20;;;;;;20663;6857;117854;-76
2023/10/04 01:51:46;;;;;;;5.12;2.50;;;16.50;51.40;;;;;;20453;6857;279483;-76
2023/10/04 01:54:12;;;;;;;2.45;2.10;;;16.30;51.80;;;;;;20658;6857;118564;-76
2023/10/04 01:56:38;;;;;;;2.60;2.40;;;16.20;51.70;;;;;;20664;6857;117725;-76
2023/10/04 01:59:05;;;;;;;2.50;2.27;;;15.70;53.20;;;;;;20648;6857;119081;-77
2023/10/04 02:01:32;;;;;;;2.50;2.40;;;15.90;53.30;;;;;;20453;6857;308853;-76
2023/10/04 02:04:03;;;;;;;2.53;2.33;;;15.80;53.10;;;;;;20448;6855;309621;-76
2023/10/04 02:06:23;;;;;;;3.33;2.37;;;16.10;53.20;;;;;;20643;6856;117800;-76
2023/10/04 02:08:49;;;;;;;2.60;2.40;;;16.10;53.20;;;;;;20647;6856;117915;-76
2023/10/04 02:11:15;;;;;;;2.40;2.10;;;15.70;54.20;;;;;;20647;6857;118997;-76
2023/10/04 02:13:42;;;;;;;2.87;2.30;;;15.60;53.70;;;;;;20462;6857;347200;-76
2023/10/04 02:16:08;;;;;;;3.23;2.70;;;15.80;53.80;;;;;;20455;6857;344562;-76
2023/10/04 02:18:33;;;;;;;2.47;2.17;;;16.10;52.00;;;;;;20660;6857;118582;-76
2023/10/04 02:20:57;;;;;;;2.80;2.55;;;16.10;52.10;;;;;;20429;6857;308671;-76
2023/10/04 02:23:23;;;;;;;2.50;2.40;;;16.10;51.60;;;;;;20666;6857;119360;-76
2023/10/04 02:25:49;;;;;;;2.78;2.58;;;16.00;52.00;;;;;;20446;6857;309105;-75
2023/10/04 02:28:25;;;;;;;2.58;2.37;;;16.10;51.60;;;;;;20668;6857;117562;-75
2023/10/04 02:30:54;;;;;;;2.47;2.37;;;15.90;51.70;;;;;;20431;6857;279651;-76
2023/10/04 02:33:15;;;;;;;2.97;2.72;;;16.00;51.70;;;;;;20445;6857;280902;-76
2023/10/04 02:35:44;;;;;;;1.90;1.80;;;16.20;51.50;;;;;;20663;6857;121432;-76
2023/10/04 02:38:16;;;;;;;3.05;2.58;;;16.00;51.70;;;;;;20436;6857;309138;-76
2023/10/04 02:40:35;;;;;;;2.80;2.50;;;16.10;51.50;;;;;;20423;6857;279564;-76
2023/10/04 02:43:00;;;;;;;2.53;2.10;;;16.30;51.10;;;;;;20632;6857;118979;-76
2023/10/04 02:45:26;;;;;;;2.67;2.47;;;16.10;51.30;;;;;;20434;6857;315793;-76
2023/10/04 02:47:52;;;;;;;2.83;2.60;;;16.20;51.40;;;;;;20439;6857;306822;-76
2023/10/04 02:50:17;;;;;;;2.00;1.90;;;16.40;51.20;;;;;;20655;6857;123830;-76
2023/10/04 02:52:43;;;;;;;2.28;2.08;;;16.20;51.20;;;;;;20659;6857;119768;-76
2023/10/04 02:55:09;;;;;;;2.27;2.07;;;15.80;51.90;;;;;;20663;6857;119124;-76
2023/10/04 02:57:34;;;;;;;3.40;2.73;;;15.60;52.50;;;;;;20448;6857;308786;-76
2023/10/04 02:59:59;;;;;;;2.27;2.17;;;15.70;52.90;;;;;;20671;6857;118743;-76
2023/10/04 03:02:25;;;;;;;7.10;2.65;;;15.60;52.10;;;;;;20436;6857;308985;-76
2023/10/04 03:04:51;;;;;;;3.20;2.17;;;15.60;51.80;;;;;;20638;6857;119578;-76
2023/10/04 03:07:16;;;;;;;3.70;2.65;;;15.50;51.90;;;;;;20448;6857;309039;-76
2023/10/04 03:09:43;;;;;;;3.22;2.83;;;15.40;51.90;;;;;;20670;6857;117388;-75
2023/10/04 03:12:10;;;;;;;2.83;2.63;;;15.40;51.70;;;;;;20443;6857;313798;-75
2023/10/04 03:14:34;;;;;;;2.58;2.37;;;15.30;51.80;;;;;;20660;6855;117955;-74
2023/10/04 03:17:08;;;;;;;2.70;2.07;;;15.30;51.80;;;;;;20648;6856;122469;-75
2023/10/04 03:19:26;;;;;;;2.17;1.97;;;14.80;53.00;;;;;;20647;6856;122995;-74
2023/10/04 03:21:52;;;;;;;2.70;2.50;;;14.80;53.00;;;;;;20448;6857;337885;-75
2023/10/04 03:24:18;;;;;;;2.60;2.40;;;15.00;53.70;;;;;;20662;6857;119076;-75
2023/10/04 03:26:44;;;;;;;2.53;2.33;;;15.00;53.00;;;;;;20669;6857;117788;-78
2023/10/04 03:29:11;;;;;;;2.73;2.50;;;14.80;53.10;;;;;;20313;6857;278608;-75
2023/10/04 03:31:35;;;;;;;2.55;2.35;;;14.90;52.90;;;;;;20662;6857;117453;-75
2023/10/04 03:34:00;;;;;;;2.50;2.30;;;14.90;52.90;;;;;;20663;6857;118704;-75
2023/10/04 03:36:26;;;;;;;3.45;1.98;;;14.70;53.20;;;;;;20666;6857;122157;-74
2023/10/04 03:38:51;;;;;;;44.28;3.72;;;14.60;53.50;;;;;;20439;6857;280454;-75
2023/10/04 03:41:18;;;;;;;20.40;3.40;;;14.80;53.40;;;;;;20461;6857;308932;-75
2023/10/04 03:43:42;;;;;;;30.45;3.40;;;15.10;52.80;;;;;;20670;6857;117906;-75
2023/10/04 03:46:18;;;;;;;3.27;2.97;;;15.10;52.70;;;;;;20464;6857;279962;-75
2023/10/04 03:48:46;;;;;;;3.30;2.70;;;15.20;52.20;;;;;;20653;6857;120532;-75
2023/10/04 03:51:13;;;;;;;3.00;2.72;;;15.00;52.30;;;;;;20389;6878;339636;-75
2023/10/04 03:53:37;;;;;;;4.87;3.35;;;15.10;52.40;;;;;;20442;6859;339190;-75
2023/10/04 03:56:04;;;;;;;2.60;2.50;;;15.20;52.10;;;;;;20658;6861;117624;-75
2023/10/04 03:58:29;;;;;;;3.10;2.90;;;15.20;52.10;;;;;;20442;6854;278777;-75
2023/10/04 04:00:56;;;;;;;3.00;2.80;;;15.30;52.20;;;;;;20428;6854;313134;-75
2023/10/04 04:03:24;;;;;;;2.87;2.67;;;15.30;52.00;;;;;;20678;6854;117839;-75
2023/10/04 04:05:50;;;;;;;2.23;2.13;;;15.30;52.00;;;;;;20672;6854;119038;-75
2023/10/04 04:08:15;;;;;;;3.15;2.85;;;14.90;52.40;;;;;;20457;6854;283634;-75
2023/10/04 04:10:41;;;;;;;2.60;2.40;;;15.00;52.50;;;;;;20674;6854;118002;-75
2023/10/04 04:13:06;;;;;;;2.50;2.30;;;14.90;52.60;;;;;;20662;6854;120410;-74
2023/10/04 04:15:34;;;;;;;3.58;2.90;;;14.60;52.90;;;;;;20460;6854;279934;-74
2023/10/04 04:17:57;;;;;;;3.17;2.90;;;14.80;52.80;;;;;;20451;6854;308708;-75
2023/10/04 04:20:23;;;;;;;3.53;3.00;;;15.00;52.50;;;;;;20461;6854;310268;-75
2023/10/04 04:22:50;;;;;;;2.83;2.62;;;15.10;52.30;;;;;;20637;6854;117749;-74
2023/10/04 04:25:15;;;;;;;3.03;2.73;;;15.10;52.30;;;;;;20661;6854;125214;-74
2023/10/04 04:27:44;;;;;;;2.70;2.50;;;14.60;53.30;;;;;;20677;6853;117652;-74
2023/10/04 04:30:09;;;;;;;3.15;2.95;;;14.60;53.30;;;;;;20449;6854;318696;-75
2023/10/04 04:32:33;;;;;;;4.13;3.00;;;14.70;53.50;;;;;;20453;6854;308014;-74
2023/10/04 04:34:58;;;;;;;3.50;3.20;;;15.00;53.00;;;;;;20446;6854;310184;-77
2023/10/04 04:37:26;;;;;;;4.80;2.90;;;15.30;52.60;;;;;;20673;6854;124139;-74
2023/10/04 04:39:49;;;;;;;3.40;3.10;;;15.10;52.60;;;;;;20459;6854;283191;-74
2023/10/04 04:42:20;;;;;;;3.10;2.90;;;15.10;52.70;;;;;;20436;6854;309375;-76
2023/10/04 04:44:42;;;;;;;2.55;2.35;;;15.30;52.50;;;;;;20658;6853;117978;-76
2023/10/04 04:47:06;;;;;;;2.77;2.57;;;15.10;52.50;;;;;;20624;6853;118228;-74
2023/10/04 04:49:32;;;;;;;2.72;2.42;;;14.80;53.00;;;;;;20684;6853;117891;-74
2023/10/04 04:51:58;;;;;;;3.23;2.93;;;14.60;53.40;;;;;;20666;6853;118481;-75
2023/10/04 04:54:23;;;;;;;2.97;2.70;;;14.30;53.60;;;;;;20454;6853;308485;-74
2023/10/04 04:56:48;;;;;;;2.67;2.47;;;14.50;53.60;;;;;;20658;6853;118168;-75
2023/10/04 04:59:14;;;;;;;2.43;2.33;;;14.50;53.40;;;;;;20686;6853;121561;-75
2023/10/04 05:01:40;;;;;;;3.20;3.00;;;14.50;53.30;;;;;;20477;6853;314124;-76
2023/10/04 05:04:07;;;;;;;2.70;2.40;;;14.50;53.30;;;;;;20682;6853;117984;-75
2023/10/04 05:06:32;;;;;;;4.10;2.97;;;14.50;53.20;;;;;;20646;6853;118529;-77
2023/10/04 05:08:57;;;;;;;2.72;2.53;;;14.30;54.30;;;;;;20661;6853;120208;-77
2023/10/04 05:11:24;;;;;;;2.80;2.60;;;14.20;53.90;;;;;;20677;6853;118744;-76
2023/10/04 05:13:51;;;;;;;3.00;2.80;;;14.00;53.90;;;;;;20459;6853;309997;-76
2023/10/04 05:16:15;;;;;;;2.80;2.60;;;14.20;53.90;;;;;;20672;6853;117792;-75
2023/10/04 05:18:40;;;;;;;2.70;2.50;;;14.20;53.70;;;;;;20645;6853;118501;-74
2023/10/04 05:21:06;;;;;;;2.90;2.70;;;14.00;53.80;;;;;;20669;6853;117458;-77
2023/10/04 05:23:31;;;;;;;2.40;2.20;;;13.90;54.10;;;;;;20688;6853;118515;-75
2023/10/04 05:25:57;;;;;;;3.17;2.90;;;13.80;54.20;;;;;;20473;6853;281206;-74
2023/10/04 05:28:22;;;;;;;2.90;2.70;;;14.00;53.20;;;;;;20464;6853;282082;-75
2023/10/04 05:30:48;;;;;;;3.97;2.93;;;14.40;52.10;;;;;;20453;6853;279620;-75
2023/10/04 05:33:14;;;;;;;2.90;2.60;;;14.60;52.00;;;;;;20680;6853;117658;-74
2023/10/04 05:35:40;;;;;;;2.92;2.70;;;14.60;52.00;;;;;;20465;6853;338342;-75
2023/10/04 05:38:06;;;;;;;2.83;2.63;;;14.60;51.70;;;;;;20684;6851;117428;-79
2023/10/04 05:40:31;;;;;;;5.35;2.60;;;14.40;52.00;;;;;;20692;6852;117298;-79
2023/10/04 05:42:57;;;;;;;2.33;2.13;;;14.20;52.60;;;;;;20659;6852;118584;-77
2023/10/04 05:45:22;;;;;;;2.50;2.30;;;13.90;53.10;;;;;;20665;6852;123421;-79
2023/10/04 05:47:50;;;;;;;2.83;2.40;;;13.70;53.50;;;;;;20660;6852;119395;-77
2023/10/04 05:50:18;;;;;;;3.20;3.00;;;13.60;53.80;;;;;;20454;6853;315565;-78
2023/10/04 05:52:40;;;;;;;3.20;2.90;;;13.80;53.40;;;;;;20444;6853;309395;-78
2023/10/04 05:55:08;;;;;;;2.97;2.78;;;14.20;53.00;;;;;;20653;6853;117943;-79
2023/10/04 05:57:33;;;;;;;3.37;2.27;;;14.20;53.00;;;;;;20675;6853;117854;-76
2023/10/04 05:59:58;;;;;;;2.67;2.47;;;14.00;54.10;;;;;;20686;6853;118536;-74
2023/10/04 06:02:24;;;;;;;2.90;2.70;;;13.90;54.00;;;;;;20470;6853;279498;-74
2023/10/04 06:04:50;;;;;;;3.55;3.10;;;14.20;54.60;;;;;;20451;6853;283958;-75
2023/10/04 06:07:15;;;;;;;2.77;2.57;;;14.60;53.30;;;;;;20463;6853;338268;-74
2023/10/04 06:09:45;;;;;;;3.90;2.67;;;14.90;52.70;;;;;;20677;6853;117438;-77
2023/10/04 06:12:11;;;;;;;3.10;2.90;;;14.70;53.10;;;;;;20688;6853;67902;-74
2023/10/04 06:14:36;;;;;;;2.70;2.50;;;14.70;53.10;;;;;;20672;6853;117320;-74
2023/10/04 06:17:02;;;;;;;3.10;2.90;;;14.60;53.60;;;;;;20453;6853;337808;-74
2023/10/04 06:19:28;;;;;;;4.75;2.70;;;14.80;53.20;;;;;;20681;6853;118072;-74
2023/10/04 06:21:53;;;;;;;2.40;2.20;;;14.90;53.10;;;;;;20675;6853;117463;-74
2023/10/04 06:24:19;;;;;;;2.92;2.55;;;14.70;53.40;;;;;;20673;6853;119184;-75
2023/10/04 06:26:44;;;;;;;3.13;2.50;;;14.70;53.40;;;;;;20657;6853;117948;-75
2023/10/04 06:29:11;;;;;;;3.10;2.80;;;14.60;53.80;;;;;;20679;6853;125036;-73
2023/10/04 06:31:37;;;;;;;3.20;2.57;;;14.60;53.80;;;;;;20690;6853;117376;-74
2023/10/04 06:34:02;;;;;;;2.90;2.37;;;14.70;54.00;;;;;;20693;6853;117068;-74
2023/10/04 06:36:29;;;;;;;2.93;2.50;;;14.70;54.00;;;;;;20701;6853;118450;-74
2023/10/04 06:38:53;;;;;;;2.40;2.20;;;14.80;54.20;;;;;;20677;6853;118220;-74
2023/10/04 06:41:24;;;;;;;3.50;3.20;;;14.90;54.40;;;;;;20480;6853;312757;-76
2023/10/04 06:43:45;;;;;;;4.40;4.00;;;15.30;52.90;;;;;;20462;6853;309621;-76
2023/10/04 06:46:10;;;;;;;21.98;19.87;;;15.90;52.50;;;;;;20452;6853;338718;-78
2023/10/04 06:48:35;;;;;;;4.80;4.40;;;16.40;51.30;;;;;;20683;6851;124237;-74
2023/10/04 06:51:02;;;;;;;3.47;2.65;;;16.50;51.30;;;;;;20666;6852;119412;-74
2023/10/04 06:53:29;;;;;;;3.27;2.40;;;16.50;51.60;;;;;;20678;6852;121240;-73
2023/10/04 06:59:22;;;;;;;2.97;2.77;;;17.20;50.20;;;;;;20435;6852;308730;-73
2023/10/04 07:01:47;;;;;;;2.97;2.67;;;17.20;50.10;;;;;;20675;6853;117391;-72
2023/10/04 07:04:13;;;;;;;3.05;2.75;;;17.20;50.30;;;;;;20441;6853;309115;-73
2023/10/04 07:06:39;;;;;;;2.80;2.60;;;17.70;49.40;;;;;;20444;6853;278732;-73
2023/10/04 07:09:07;;;;;;;3.43;3.00;;;17.70;49.40;;;;;;20656;6853;122912;-73
2023/10/04 07:11:30;;;;;;;2.33;2.22;;;17.70;49.70;;;;;;20668;6853;127187;-73
2023/10/04 07:13:56;;;;;;;2.58;2.37;;;17.50;50.20;;;;;;20673;6853;119918;-73
2023/10/04 07:16:22;;;;;;;3.00;2.80;;;17.40;50.60;;;;;;20455;6853;292478;-73
2023/10/04 07:18:47;;;;;;;3.10;2.80;;;17.60;50.00;;;;;;20445;6853;309096;-73
2023/10/04 07:21:15;;;;;;;4.62;2.55;;;18.00;49.70;;;;;;20679;6853;118840;-73
2023/10/04 07:23:38;;;;;;;2.50;2.30;;;18.00;49.60;;;;;;20461;6853;307941;-73
2023/10/04 07:26:04;;;;;;;2.70;2.60;;;18.20;49.50;;;;;;20677;6853;117318;-73
2023/10/04 07:28:31;;;;;;;2.85;2.65;;;18.20;49.70;;;;;;20466;6853;308784;-73
2023/10/04 07:30:56;;;;;;;2.95;2.65;;;18.30;49.00;;;;;;20447;6853;279149;-73
2023/10/04 07:33:22;;;;;;;2.60;2.50;;;18.60;48.70;;;;;;20670;6853;118638;-73
2023/10/04 07:35:47;;;;;;;2.90;2.70;;;18.60;48.80;;;;;;20462;6853;309161;-73
2023/10/04 07:38:13;;;;;;;2.92;2.10;;;18.70;48.20;;;;;;20675;6853;117413;-72
2023/10/04 07:40:39;;;;;;;2.42;2.22;;;18.60;49.00;;;;;;20676;6853;117733;-76
2023/10/04 07:43:07;;;;;;;2.47;2.30;;;18.60;49.00;;;;;;20656;6853;120403;-76
2023/10/04 07:45:31;;;;;;;2.60;2.40;;;18.40;49.90;;;;;;20669;6853;122400;-75
2023/10/04 07:47:58;;;;;;;2.80;2.50;;;18.40;49.60;;;;;;20446;6853;338311;-75
2023/10/04 07:50:25;;;;;;;3.03;2.80;;;18.70;49.40;;;;;;20457;6853;309541;-76
2023/10/04 07:52:50;;;;;;;2.60;2.40;;;19.10;48.90;;;;;;20650;6853;124204;-76
2023/10/04 07:55:17;;;;;;;2.80;2.20;;;19.20;49.00;;;;;;20655;6853;118114;-75
2023/10/04 07:57:42;;;;;;;2.80;2.47;;;19.10;49.20;;;;;;20452;6853;279616;-75
2023/10/04 08:00:11;;;;;;;2.80;2.60;;;19.30;48.90;;;;;;20463;6853;315127;-76
2023/10/04 08:02:32;;;;;;;2.40;2.30;;;19.60;48.30;;;;;;20659;6852;117238;-75
2023/10/04 08:04:57;;;;;;;2.23;2.13;;;19.70;48.40;;;;;;20657;6852;117637;-75
2023/10/04 08:07:23;;;;;;;2.00;1.90;;;19.60;48.90;;;;;;20674;6852;117497;-75
2023/10/04 08:09:48;;;;;;;2.72;2.50;;;19.50;49.00;;;;;;20467;6852;308623;-75
2023/10/04 08:12:15;;;;;;;2.85;2.65;;;20.20;47.60;;;;;;20465;6853;339176;-75
2023/10/04 08:14:40;;;;;;;2.37;2.17;;;20.10;47.50;;;;;;20673;6853;119942;-75
2023/10/04 08:17:06;;;;;;;3.17;2.70;;;20.30;47.60;;;;;;20444;6853;339120;-75
2023/10/04 08:19:31;;;;;;;2.77;2.57;;;20.50;46.70;;;;;;20674;6853;123734;-75
2023/10/04 08:21:57;;;;;;;3.03;2.60;;;20.60;47.00;;;;;;20462;6853;279491;-75
2023/10/04 08:24:22;;;;;;;3.03;2.73;;;20.80;46.80;;;;;;20462;6853;308787;-75
2023/10/04 08:26:50;;;;;;;3.28;2.50;;;21.40;46.30;;;;;;20451;6853;293615;-75
2023/10/04 08:29:15;;;;;;;3.20;2.57;;;21.30;45.90;;;;;;20673;6853;119135;-76
2023/10/04 08:31:41;;;;;;;2.60;2.40;;;21.40;46.00;;;;;;20464;6853;279170;-80
2023/10/04 08:34:06;;;;;;;3.00;2.43;;;21.40;45.20;;;;;;20464;6853;309467;-77
2023/10/04 08:36:33;;;;;;;3.33;2.70;;;21.80;44.40;;;;;;20462;6853;313657;-75
2023/10/04 08:38:59;;;;;;;2.13;2.00;;;21.80;44.40;;;;;;20649;6853;120799;-75
2023/10/04 08:41:25;;;;;;;4.03;2.33;;;21.60;45.30;;;;;;20670;6853;124985;-75
2023/10/04 08:43:51;;;;;;;3.28;2.40;;;21.50;45.10;;;;;;20457;6853;309539;-75
2023/10/04 08:46:18;;;;;;;3.33;2.73;;;21.60;44.90;;;;;;20455;6853;309112;-75
2023/10/04 08:48:43;;;;;;;3.10;2.20;;;21.90;43.40;;;;;;20657;6853;118204;-74
2023/10/04 08:51:13;;;;;;;2.63;2.20;;;21.80;43.90;;;;;;20612;6853;119174;-75
2023/10/04 08:54:01;;;;;;;1.90;1.67;;;21.80;43.90;;;;;;20618;6853;117519;-75
2023/10/04 08:56:26;;;;;;;2.40;1.80;;;21.70;44.00;;;;;;20658;6853;120079;-75
2023/10/04 08:58:52;;;;;;;2.63;1.97;;;21.50;43.90;;;;;;20643;6853;117681;-76
2023/10/04 09:01:20;;;;;;;2.60;1.98;;;21.50;44.00;;;;;;20455;6853;312828;-76
2023/10/04 09:03:44;;;;;;;2.97;1.77;;;21.80;42.50;;;;;;20648;6853;117455;-76
2023/10/04 09:06:10;;;;;;;1.73;1.57;;;21.80;42.40;;;;;;20667;6853;121059;-75
2023/10/04 09:08:35;;;;;;;2.75;1.70;;;21.80;42.80;;;;;;20673;6853;121067;-75
2023/10/04 09:11:01;;;;;;;2.13;1.93;;;21.80;42.80;;;;;;20448;6853;279804;-75
2023/10/04 09:13:27;;;;;;;1.73;1.63;;;22.20;41.60;;;;;;20633;6864;118962;-76
2023/10/04 09:15:52;;;;;;;2.43;1.97;;;22.20;41.60;;;;;;20657;6852;118424;-76
2023/10/04 09:18:30;;;;;;;2.72;2.08;;;22.30;40.00;;;;;;20461;6852;334419;-76
2023/10/04 09:20:54;;;;;;;4.43;1.90;;;22.30;40.00;;;;;;20653;6852;125086;-76
2023/10/04 09:23:22;;;;;;;2.90;2.20;;;22.50;40.60;;;;;;20475;6853;310227;-76
2023/10/04 09:25:48;;;;;;;2.87;2.25;;;22.60;39.60;;;;;;20464;6853;282702;-79
2023/10/04 09:28:13;;;;;;;2.80;2.17;;;22.90;39.00;;;;;;20458;6853;282339;-76
2023/10/04 09:30:39;;;;;;;2.20;2.00;;;23.20;38.50;;;;;;20459;6853;343951;-76
2023/10/04 09:33:14;;;;;;;4.43;2.20;;;23.40;39.00;;;;;;20664;6853;117383;-78
2023/10/04 09:35:41;;;;;;;2.63;2.43;;;23.40;39.20;;;;;;20601;6853;118585;-79
2023/10/04 09:38:15;;;;;;;3.40;1.80;;;23.20;39.70;;;;;;20462;6853;308152;-76
2023/10/04 09:40:59;;;;;;;2.33;1.90;;;23.30;38.10;;;;;;20440;6853;345977;-77
2023/10/04 09:43:35;;;;;;;2.80;2.28;;;23.50;38.60;;;;;;20449;6853;330943;-76
2023/10/04 09:45:58;;;;;;;2.47;1.87;;;23.70;36.70;;;;;;20655;6853;117508;-77
2023/10/04 09:48:33;;;;;;;1.73;1.62;;;23.60;37.70;;;;;;20658;6853;118726;-78
2023/10/04 09:51:00;;;;;;;2.57;1.57;;;23.40;38.30;;;;;;20637;6853;122058;-77
2023/10/04 09:53:26;;;;;;;3.40;1.90;;;23.20;38.80;;;;;;20411;6853;314398;-77
2023/10/04 09:55:52;;;;;;;2.73;1.87;;;23.30;38.80;;;;;;20666;6853;121094;-77
2023/10/04 09:58:18;;;;;;;2.10;1.87;;;23.30;38.80;;;;;;20663;6853;117466;-77
2023/10/04 10:00:43;;;;;;;2.57;2.00;;;23.30;39.10;;;;;;20418;6853;340214;-76
2023/10/04 10:03:09;;;;;;;2.10;1.90;;;23.40;38.10;;;;;;20460;6853;309571;-77
2023/10/04 10:05:35;;;;;;;2.63;2.03;;;23.90;36.60;;;;;;20454;6853;309477;-77
2023/10/04 10:08:04;;;;;;;2.73;2.10;;;23.80;36.50;;;;;;20450;6853;280370;-77
2023/10/04 10:10:27;;;;;;;2.23;1.57;;;23.80;37.50;;;;;;20641;6853;117737;-77
2023/10/04 10:12:53;;;;;;;2.55;2.00;;;23.80;36.80;;;;;;20444;6853;279463;-79
2023/10/04 10:15:21;;;;;;;2.25;1.90;;;23.70;36.00;;;;;;20458;6853;306934;-80
2023/10/04 10:17:46;;;;;;;2.80;1.90;;;24.00;36.90;;;;;;20465;6853;309085;-80
2023/10/04 10:20:11;;;;;;;1.70;1.60;;;24.10;36.60;;;;;;20677;6853;121654;-78
2023/10/04 10:23:00;;;;;;;2.63;1.70;;;24.00;36.70;;;;;;20467;6853;279047;-81
2023/10/04 10:25:29;;;;;;;2.62;2.00;;;24.00;36.90;;;;;;20292;6852;344241;-79
2023/10/04 10:27:59;;;;;;;2.37;1.90;;;24.00;36.00;;;;;;20470;6852;312642;-80
2023/10/04 10:30:24;;;;;;;2.08;1.90;;;24.00;36.20;;;;;;20450;6852;337266;-79
2023/10/04 10:32:53;;;;;;;2.70;1.87;;;24.00;35.50;;;;;;20441;6852;282108;-78
2023/10/04 10:35:17;;;;;;;2.25;1.90;;;24.00;35.30;;;;;;20439;6853;316370;-80
2023/10/04 10:37:43;;;;;;;1.90;1.67;;;24.20;35.50;;;;;;20567;6853;117665;-79
2023/10/04 10:40:14;;;;;;;2.20;2.00;;;24.00;36.00;;;;;;20674;6853;120527;-79
2023/10/04 10:43:07;;;;;;;3.20;1.65;;;23.80;36.40;;;;;;20566;6853;121476;-79
2023/10/04 10:45:33;;;;;;;2.30;1.90;;;23.70;36.90;;;;;;20446;6853;311106;-78
2023/10/04 10:47:58;;;;;;;3.12;2.10;;;23.90;36.80;;;;;;20446;6853;314657;-79
2023/10/04 10:50:35;;;;;;;1.70;1.58;;;24.30;36.60;;;;;;20669;6853;117375;-79
2023/10/04 10:53:05;;;;;;;2.73;2.03;;;24.50;36.70;;;;;;20447;6853;313732;-78
2023/10/04 10:55:30;;;;;;;1.40;1.30;;;24.70;35.70;;;;;;20658;6853;125501;-78
2023/10/04 10:57:56;;;;;;;1.48;1.37;;;24.70;36.70;;;;;;20681;6853;117486;-77
2023/10/04 11:00:23;;;;;;;3.53;1.90;;;24.60;36.60;;;;;;20671;6853;118782;-78
2023/10/04 11:02:48;;;;;;;2.70;1.70;;;24.70;37.50;;;;;;20647;6853;117453;-78
2023/10/04 11:05:16;;;;;;;2.47;2.10;;;24.70;36.80;;;;;;20463;6853;278621;-76
2023/10/04 11:07:39;;;;;;;2.60;1.70;;;24.90;35.10;;;;;;20661;6853;118310;-76
2023/10/04 11:10:05;;;;;;;3.10;1.80;;;25.10;35.10;;;;;;20677;6853;116837;-86
2023/10/04 11:12:37;;;;;;;3.10;2.17;;;25.00;35.60;;;;;;20456;6853;311416;-79
2023/10/04 11:14:56;;;;;;;2.67;2.03;;;25.10;33.40;;;;;;20414;6853;312422;-83
2023/10/04 11:17:22;;;;;;;1.55;1.45;;;25.40;34.00;;;;;;20678;6853;117638;-79
2023/10/04 11:19:50;;;;;;;2.17;1.60;;;25.40;34.00;;;;;;20661;6853;118491;-80
2023/10/04 11:22:14;;;;;;;2.05;1.80;;;25.20;34.00;;;;;;20452;6853;281158;-79
2023/10/04 11:24:39;;;;;;;2.53;1.50;;;25.10;34.00;;;;;;20673;6853;119283;-80
2023/10/04 11:27:05;;;;;;;2.27;1.90;;;25.00;34.20;;;;;;20452;6853;283842;-77
2023/10/04 11:29:30;;;;;;;1.53;1.43;;;24.80;32.90;;;;;;20665;6853;117901;-80
2023/10/04 11:31:58;;;;;;;2.00;1.60;;;24.50;33.50;;;;;;20459;6853;309150;-79
2023/10/04 11:34:23;;;;;;;1.90;1.80;;;24.50;33.40;;;;;;20683;6853;118517;-78
2023/10/04 11:36:48;;;;;;;1.50;1.40;;;24.20;33.70;;;;;;20657;6851;117937;-77
2023/10/04 11:39:20;;;;;;;2.22;1.95;;;23.80;34.10;;;;;;20476;6852;307778;-78
2023/10/04 11:41:47;;;;;;;1.87;1.57;;;23.50;34.60;;;;;;20683;6852;123255;-79
2023/10/04 11:44:14;;;;;;;4.03;1.70;;;23.50;34.60;;;;;;20674;6852;122817;-78
2023/10/04 11:47:03;;;;;;;1.67;1.57;;;23.30;35.50;;;;;;20654;6853;118440;-76
2023/10/04 11:49:28;;;;;;;1.83;1.40;;;23.30;35.90;;;;;;20663;6853;117593;-76
2023/10/04 11:51:55;;;;;;;2.07;1.97;;;23.20;35.80;;;;;;20668;6853;117411;-75
2023/10/04 11:54:19;;;;;;;2.45;1.67;;;23.20;35.60;;;;;;20673;6853;117763;-79
2023/10/04 11:56:44;;;;;;;2.43;1.57;;;23.10;35.20;;;;;;20660;6853;118983;-78
2023/10/04 11:59:12;;;;;;;2.93;1.90;;;23.30;34.60;;;;;;20470;6853;279418;-77
2023/10/04 12:01:44;;;;;;;2.00;1.67;;;23.80;34.40;;;;;;20444;6853;338727;-77
2023/10/04 12:04:10;;;;;;;2.30;1.77;;;24.00;31.90;;;;;;20462;6853;316852;-77
2023/10/04 12:06:37;;;;;;;1.63;1.53;;;24.00;31.90;;;;;;20689;6853;123389;-77
2023/10/04 12:09:08;;;;;;;2.67;1.40;;;24.00;32.70;;;;;;20662;6853;133045;-77
2023/10/04 12:11:37;;;;;;;1.73;1.60;;;23.90;33.40;;;;;;20660;6853;120288;-78
2023/10/04 12:14:04;;;;;;;2.07;1.70;;;23.80;33.70;;;;;;20681;6853;117837;-78
2023/10/04 12:16:32;;;;;;;2.07;1.87;;;23.80;34.00;;;;;;20682;6853;117885;-80
2023/10/04 12:18:56;;;;;;;2.40;1.80;;;23.90;34.00;;;;;;20422;6853;342637;-79
2023/10/04 12:21:22;;;;;;;2.23;2.03;;;23.90;33.90;;;;;;20672;6853;117634;-79
2023/10/04 12:23:48;;;;;;;2.72;1.98;;;24.00;33.50;;;;;;20481;6853;329363;-78
2023/10/04 12:26:16;;;;;;;2.70;1.73;;;24.30;32.70;;;;;;20693;6853;117824;-77
2023/10/04 12:28:40;;;;;;;2.80;1.77;;;24.30;32.70;;;;;;20472;6853;339542;-78
2023/10/04 12:31:07;;;;;;;1.80;1.67;;;24.50;32.70;;;;;;20447;6853;279103;-78
2023/10/04 12:33:30;;;;;;;1.70;1.60;;;24.70;32.10;;;;;;20674;6853;118876;-78
2023/10/04 12:35:57;;;;;;;2.33;1.87;;;24.80;32.10;;;;;;20479;6853;312817;-77
2023/10/04 12:38:24;;;;;;;2.00;1.80;;;24.80;29.80;;;;;;20696;6853;117414;-80